Time;durP1;ratioP1;P1;durP2;ratioP2;P2;SDS_P1;SDS_P2;PMS_P1;PMS_P2;Temp;Humidity;BMP_temperature;BMP_pressure;BME280_temperature;BME280_humidity;BME280_pressure;Samples;Min_cycle;Max_cycle;Signal;HPM_P1;HPM_P2
2022/01/03 00:01:39;;;;;;;2.00;0.70;;;9.70;99.90;;;;;;4996401;28;20441;-70
2022/01/03 00:04:06;;;;;;;2.17;0.70;;;9.90;99.90;;;;;;4995346;28;20441;-70
2022/01/03 00:06:34;;;;;;;3.70;0.80;;;10.00;99.90;;;;;;4999292;28;20437;-70
2022/01/03 00:09:00;;;;;;;11.77;1.50;;;10.10;99.90;;;;;;4982638;28;20419;-70
2022/01/03 00:11:26;;;;;;;1.33;0.70;;;10.20;99.90;;;;;;4989985;28;20509;-70
2022/01/03 00:13:52;;;;;;;8.63;0.80;;;10.30;99.80;;;;;;4990110;28;20820;-70
2022/01/03 00:16:18;;;;;;;16.60;1.30;;;10.30;99.90;;;;;;4986859;28;20194;-70
2022/01/03 00:18:44;;;;;;;5.20;1.10;;;10.30;99.90;;;;;;4988342;28;20438;-70
2022/01/03 00:21:16;;;;;;;6.80;0.90;;;10.30;99.90;;;;;;4989295;28;20437;-70
2022/01/03 00:23:54;;;;;;;3.10;1.10;;;10.20;99.90;;;;;;4998797;28;20550;-69
2022/01/03 00:26:26;;;;;;;4.50;0.90;;;10.30;99.80;;;;;;4992915;28;20768;-70
2022/01/03 00:29:01;;;;;;;2.53;0.77;;;10.30;99.80;;;;;;4997935;28;20588;-69
2022/01/03 00:31:34;;;;;;;3.00;1.07;;;10.30;99.70;;;;;;4992715;28;21152;-69
2022/01/03 00:34:04;;;;;;;1.80;0.80;;;10.30;99.60;;;;;;4985511;28;20419;-69
2022/01/03 00:36:31;;;;;;;2.33;0.93;;;10.30;99.70;;;;;;5000296;28;20739;-69
2022/01/03 00:38:56;;;;;;;1.50;0.63;;;10.40;99.30;;;;;;4992545;28;20419;-69
2022/01/03 00:41:23;;;;;;;2.80;1.00;;;10.40;99.20;;;;;;4996782;28;20970;-69
2022/01/03 00:43:52;;;;;;;1.60;0.77;;;10.40;99.40;;;;;;4990738;28;20234;-69
2022/01/03 00:46:18;;;;;;;5.37;1.10;;;10.30;99.30;;;;;;4995330;28;20433;-68
2022/01/03 00:48:44;;;;;;;2.77;1.17;;;10.30;99.30;;;;;;4991385;28;20423;-70
2022/01/03 00:51:10;;;;;;;3.33;1.23;;;10.20;99.40;;;;;;4992539;28;20477;-70
2022/01/03 00:53:36;;;;;;;5.57;1.23;;;10.20;99.40;;;;;;4996636;28;20586;-69
2022/01/03 00:56:12;;;;;;;8.50;1.03;;;10.20;99.40;;;;;;4991571;28;20434;-70
2022/01/03 00:58:59;;;;;;;3.10;1.23;;;10.20;99.60;;;;;;4996364;28;20689;-69
2022/01/03 01:01:26;;;;;;;4.67;1.23;;;10.20;99.50;;;;;;4987671;28;20799;-69
2022/01/03 01:03:54;;;;;;;5.63;1.20;;;10.20;99.40;;;;;;4999562;28;20441;-70
2022/01/03 01:06:22;;;;;;;5.47;1.30;;;10.20;99.60;;;;;;4989047;28;20423;-70
2022/01/03 01:08:54;;;;;;;6.87;1.43;;;10.20;99.50;;;;;;4982864;28;20446;-70
2022/01/03 01:11:28;;;;;;;1.70;0.70;;;10.10;99.60;;;;;;4987489;28;20990;-70
2022/01/03 01:13:55;;;;;;;7.53;0.80;;;10.10;99.60;;;;;;4988560;28;20525;-70
2022/01/03 01:16:23;;;;;;;4.50;0.60;;;10.10;99.90;;;;;;4990374;28;20482;-69
2022/01/03 01:18:50;;;;;;;3.30;0.87;;;9.90;99.90;;;;;;4990192;28;20457;-69
2022/01/03 01:21:16;;;;;;;1.50;0.67;;;10.00;99.90;;;;;;4979441;28;20435;-69
2022/01/03 01:23:43;;;;;;;6.83;1.20;;;10.00;99.90;;;;;;4997043;28;20430;-69
2022/01/03 01:28:53;;;;;;;2.83;1.27;;;10.00;99.90;;;;;;4991286;28;20430;-70
2022/01/03 01:31:21;;;;;;;1.60;0.90;;;9.90;99.90;;;;;;4989595;28;20598;-70
2022/01/03 01:33:52;;;;;;;2.50;0.93;;;9.90;99.90;;;;;;4989279;28;20794;-69
2022/01/03 01:36:22;;;;;;;2.67;0.80;;;9.90;99.90;;;;;;4989732;28;20576;-70
2022/01/03 01:38:51;;;;;;;1.37;0.70;;;9.90;99.90;;;;;;4989317;28;20549;-70
2022/01/03 01:41:19;;;;;;;3.60;0.87;;;9.90;99.90;;;;;;4990714;28;20531;-70
2022/01/03 01:43:47;;;;;;;3.73;1.07;;;9.80;99.90;;;;;;4994378;28;20870;-70
2022/01/03 01:46:16;;;;;;;4.60;0.90;;;9.80;99.90;;;;;;4988347;28;21047;-70
2022/01/03 01:48:44;;;;;;;2.80;0.73;;;9.70;99.90;;;;;;4991039;28;20557;-70
2022/01/03 01:51:12;;;;;;;7.60;1.10;;;9.70;99.90;;;;;;4985577;28;20513;-70
2022/01/03 01:53:47;;;;;;;2.57;1.00;;;9.70;99.90;;;;;;4994318;28;20431;-69
2022/01/03 01:56:25;;;;;;;1.70;1.00;;;9.70;99.90;;;;;;4991905;28;20417;-69
2022/01/03 01:59:14;;;;;;;1.50;1.00;;;9.60;99.90;;;;;;4978993;28;20435;-69
2022/01/03 02:01:50;;;;;;;8.37;0.90;;;9.50;99.90;;;;;;4995405;28;20990;-70
2022/01/03 02:04:47;;;;;;;7.90;1.40;;;9.40;99.90;;;;;;4990394;28;20434;-70
2022/01/03 02:07:25;;;;;;;4.10;0.90;;;9.50;99.90;;;;;;4986036;28;20885;-70
2022/01/03 02:10:30;;;;;;;11.03;1.20;;;9.50;99.90;;;;;;4980555;28;20442;-69
2022/01/03 02:12:57;;;;;;;3.00;0.97;;;9.60;99.90;;;;;;4977788;28;21412;-70
2022/01/03 02:15:23;;;;;;;2.53;0.67;;;9.70;99.90;;;;;;4979969;28;20442;-69
2022/01/03 02:17:49;;;;;;;2.90;0.83;;;9.70;99.90;;;;;;4988606;28;20794;-70
2022/01/03 02:20:25;;;;;;;3.27;0.90;;;9.70;99.90;;;;;;4994006;28;20267;-70
2022/01/03 02:22:51;;;;;;;2.23;1.37;;;9.70;99.90;;;;;;4990473;28;20447;-70
2022/01/03 02:25:19;;;;;;;4.53;1.20;;;9.70;99.90;;;;;;4989583;28;20435;-69
2022/01/03 02:27:46;;;;;;;1.87;0.70;;;9.70;99.90;;;;;;4991605;28;20439;-70
2022/01/03 02:30:15;;;;;;;2.03;1.00;;;9.80;99.90;;;;;;4994017;28;20430;-70
2022/01/03 02:32:41;;;;;;;4.67;1.40;;;9.70;99.90;;;;;;4985956;28;20442;-70
2022/01/03 02:35:08;;;;;;;2.00;1.00;;;9.70;99.90;;;;;;4994659;28;20435;-69
2022/01/03 02:37:33;;;;;;;3.97;1.30;;;9.70;99.90;;;;;;4988406;28;20977;-69
2022/01/03 02:39:59;;;;;;;1.50;0.60;;;9.70;99.90;;;;;;4994075;28;20702;-69
2022/01/03 02:42:25;;;;;;;2.23;0.70;;;9.80;99.90;;;;;;4983534;28;20187;-69
2022/01/03 02:45:26;;;;;;;2.70;1.30;;;9.80;99.90;;;;;;4988224;28;20453;-69
2022/01/03 02:47:59;;;;;;;5.57;1.03;;;9.80;99.90;;;;;;4967389;28;20494;-69
2022/01/03 02:50:27;;;;;;;3.10;0.90;;;9.90;99.90;;;;;;4983020;28;20951;-69
2022/01/03 02:52:53;;;;;;;3.63;0.80;;;9.80;99.90;;;;;;4985680;28;20576;-69
2022/01/03 02:55:19;;;;;;;3.03;0.80;;;9.80;99.90;;;;;;4979123;28;20457;-69
2022/01/03 02:57:48;;;;;;;1.93;0.97;;;9.90;99.90;;;;;;4987083;28;20443;-69
2022/01/03 03:00:23;;;;;;;1.93;0.60;;;9.80;99.90;;;;;;4988616;28;20521;-69
2022/01/03 03:02:49;;;;;;;6.50;1.53;;;9.90;99.90;;;;;;4979769;28;20426;-69
2022/01/03 03:05:15;;;;;;;4.10;1.17;;;9.80;99.90;;;;;;4992005;28;20421;-69
2022/01/03 03:07:42;;;;;;;4.00;1.07;;;9.80;99.90;;;;;;4988119;28;20782;-69
2022/01/03 03:10:11;;;;;;;4.50;1.13;;;9.80;99.90;;;;;;4997731;28;20188;-70
2022/01/03 03:12:37;;;;;;;2.10;0.90;;;9.70;99.90;;;;;;4984244;28;20486;-70
2022/01/03 03:15:05;;;;;;;2.60;0.90;;;9.70;99.90;;;;;;4982576;28;20438;-69
2022/01/03 03:17:31;;;;;;;1.30;0.60;;;9.70;99.90;;;;;;4984927;28;20434;-69
2022/01/03 03:20:08;;;;;;;2.23;0.90;;;9.70;99.90;;;;;;4991185;28;20961;-69
2022/01/03 03:22:34;;;;;;;5.23;0.90;;;9.80;99.90;;;;;;4992017;28;20434;-69
2022/01/03 03:25:06;;;;;;;4.70;1.20;;;9.80;99.90;;;;;;4989667;28;20502;-69
2022/01/03 03:27:33;;;;;;;2.23;0.87;;;9.80;99.90;;;;;;4986786;28;20765;-69
2022/01/03 03:29:59;;;;;;;3.30;0.80;;;9.80;99.90;;;;;;4987222;28;20878;-69
2022/01/03 03:32:26;;;;;;;4.43;1.40;;;9.90;99.90;;;;;;4989677;28;20568;-69
2022/01/03 03:34:52;;;;;;;4.30;1.33;;;9.80;99.90;;;;;;4994197;28;20546;-69
2022/01/03 03:37:18;;;;;;;1.33;0.60;;;9.90;99.90;;;;;;4987520;28;20477;-69
2022/01/03 03:39:44;;;;;;;3.50;1.27;;;9.80;99.90;;;;;;5000263;28;20544;-69
2022/01/03 03:42:11;;;;;;;3.77;0.93;;;9.80;99.90;;;;;;4995987;28;20948;-70
2022/01/03 03:44:37;;;;;;;1.97;0.80;;;9.80;99.90;;;;;;4994431;28;20339;-69
2022/01/03 03:47:05;;;;;;;1.77;0.60;;;9.80;99.90;;;;;;4995135;28;20907;-69
2022/01/03 03:49:31;;;;;;;2.00;1.17;;;9.80;99.90;;;;;;4992289;28;20438;-69
2022/01/03 03:51:58;;;;;;;2.07;1.17;;;9.70;99.90;;;;;;4990211;28;20796;-70
2022/01/03 03:54:24;;;;;;;3.87;0.97;;;9.70;99.90;;;;;;4985164;28;20501;-69
2022/01/03 03:56:49;;;;;;;2.30;1.10;;;9.70;99.90;;;;;;4992582;28;21309;-70
2022/01/03 03:59:15;;;;;;;9.60;0.60;;;9.70;99.90;;;;;;4993793;28;20183;-69
2022/01/03 04:01:41;;;;;;;14.53;1.10;;;9.70;99.90;;;;;;4996977;28;20325;-69
2022/01/03 04:04:06;;;;;;;2.90;1.33;;;9.70;99.90;;;;;;4989452;28;20227;-70
2022/01/03 04:06:32;;;;;;;14.60;1.20;;;9.60;99.90;;;;;;4989232;28;20203;-69
2022/01/03 04:08:58;;;;;;;3.63;0.77;;;9.60;99.90;;;;;;4982483;28;20202;-69
2022/01/03 04:11:23;;;;;;;5.60;2.13;;;9.60;99.90;;;;;;4989333;28;20215;-69
2022/01/03 04:13:49;;;;;;;5.63;1.30;;;9.60;99.90;;;;;;4990715;28;20540;-70
2022/01/03 04:16:16;;;;;;;3.10;1.13;;;9.60;99.90;;;;;;4984047;28;20325;-69
2022/01/03 04:18:41;;;;;;;7.23;1.00;;;9.60;99.90;;;;;;4983195;28;20186;-69
2022/01/03 04:21:07;;;;;;;4.33;1.13;;;9.60;99.90;;;;;;4979507;28;20953;-69
2022/01/03 04:23:33;;;;;;;11.23;1.63;;;9.60;99.90;;;;;;4988880;28;20192;-69
2022/01/03 04:25:59;;;;;;;19.70;1.10;;;9.50;99.90;;;;;;4993246;28;20190;-69
2022/01/03 04:28:25;;;;;;;2.10;0.80;;;9.50;99.90;;;;;;4992233;28;20222;-69
2022/01/03 04:30:53;;;;;;;2.30;1.20;;;9.40;99.90;;;;;;4992963;28;20239;-69
2022/01/03 04:33:19;;;;;;;2.80;1.10;;;9.30;99.90;;;;;;4993030;28;20449;-70
2022/01/03 04:35:45;;;;;;;5.83;0.90;;;9.30;99.90;;;;;;4993430;28;20923;-69
2022/01/03 04:38:10;;;;;;;1.53;0.80;;;9.20;99.90;;;;;;4988433;28;20482;-70
2022/01/03 04:40:36;;;;;;;5.90;1.50;;;9.20;99.90;;;;;;4988981;28;20227;-70
2022/01/03 04:43:03;;;;;;;5.13;1.30;;;9.10;99.90;;;;;;4984746;28;20227;-69
2022/01/03 04:45:28;;;;;;;2.97;1.20;;;9.10;99.90;;;;;;4988296;28;20191;-69
2022/01/03 04:47:54;;;;;;;10.37;1.70;;;9.10;99.90;;;;;;4991668;28;20456;-70
2022/01/03 04:50:20;;;;;;;7.53;1.00;;;9.20;99.90;;;;;;4992993;28;20196;-69
2022/01/03 04:52:46;;;;;;;4.80;1.27;;;9.20;99.90;;;;;;4988418;28;20285;-69
2022/01/03 04:55:11;;;;;;;3.13;0.90;;;9.20;99.90;;;;;;4990852;28;20188;-69
2022/01/03 04:57:37;;;;;;;9.97;1.97;;;9.30;99.90;;;;;;4992509;28;20728;-69
2022/01/03 05:00:06;;;;;;;1.77;0.57;;;9.20;99.90;;;;;;4988465;28;20190;-69
2022/01/03 05:02:31;;;;;;;2.47;0.77;;;9.20;99.90;;;;;;4983562;28;20965;-69
2022/01/03 05:04:57;;;;;;;8.70;0.77;;;9.30;99.90;;;;;;4990161;28;20528;-69
2022/01/03 05:07:23;;;;;;;2.60;0.83;;;9.30;99.90;;;;;;4984066;28;20203;-69
2022/01/03 05:09:49;;;;;;;4.63;1.00;;;9.30;99.90;;;;;;4991740;28;20213;-70
2022/01/03 05:12:16;;;;;;;6.63;1.20;;;9.40;99.90;;;;;;4990369;28;20254;-70
2022/01/03 05:14:42;;;;;;;2.10;0.83;;;9.30;99.90;;;;;;4992926;28;20666;-69
2022/01/03 05:17:08;;;;;;;4.27;1.30;;;9.30;99.90;;;;;;4985568;28;20443;-69
2022/01/03 05:19:34;;;;;;;4.80;1.33;;;9.30;99.90;;;;;;4987751;28;20804;-69
2022/01/03 05:21:59;;;;;;;1.70;1.03;;;9.20;99.90;;;;;;4998265;28;20192;-70
2022/01/03 05:24:25;;;;;;;4.40;1.10;;;9.10;99.90;;;;;;4990805;28;20195;-70
2022/01/03 05:26:50;;;;;;;4.43;1.23;;;9.10;99.90;;;;;;4987029;28;20200;-70
2022/01/03 05:29:16;;;;;;;6.23;1.00;;;9.10;99.90;;;;;;4992407;28;20313;-70
2022/01/03 05:31:42;;;;;;;3.57;1.03;;;9.10;99.90;;;;;;4991770;28;20674;-70
2022/01/03 05:34:07;;;;;;;3.97;1.03;;;9.10;99.90;;;;;;4996878;28;20218;-70
2022/01/03 05:36:33;;;;;;;3.20;1.10;;;9.00;99.90;;;;;;4993056;28;20764;-70
2022/01/03 05:38:59;;;;;;;3.40;0.80;;;9.00;99.90;;;;;;4993234;28;20191;-70
2022/01/03 05:41:25;;;;;;;1.90;0.90;;;8.90;99.90;;;;;;4988512;28;20294;-70
2022/01/03 05:43:52;;;;;;;4.60;1.03;;;8.80;99.90;;;;;;4986949;28;20290;-70
2022/01/03 05:46:18;;;;;;;7.03;1.20;;;8.80;99.90;;;;;;4992698;28;20197;-70
2022/01/03 05:48:43;;;;;;;7.93;1.50;;;8.80;99.90;;;;;;4986828;28;20497;-70
2022/01/03 05:51:09;;;;;;;2.90;1.00;;;8.80;99.90;;;;;;4991305;28;20250;-70
2022/01/03 05:53:35;;;;;;;10.53;2.20;;;8.90;99.90;;;;;;4979680;28;20203;-70
2022/01/03 05:56:01;;;;;;;13.47;1.20;;;8.80;99.90;;;;;;4989555;28;20188;-69
2022/01/03 05:58:27;;;;;;;2.23;0.70;;;8.80;99.90;;;;;;4988466;28;20188;-69
2022/01/03 06:00:53;;;;;;;6.90;1.33;;;8.80;99.90;;;;;;4984776;28;20187;-69
2022/01/03 06:03:22;;;;;;;2.50;0.90;;;8.90;99.90;;;;;;4985817;28;20471;-69
2022/01/03 06:08:24;;;;;;;15.83;1.80;;;8.80;99.90;;;;;;4985217;28;20449;-70
2022/01/03 06:10:50;;;;;;;3.83;1.27;;;8.90;99.90;;;;;;4991667;28;20506;-70
2022/01/03 06:13:16;;;;;;;3.83;1.37;;;8.90;99.90;;;;;;4983050;28;20534;-70
2022/01/03 06:15:42;;;;;;;4.83;1.40;;;8.80;99.90;;;;;;4989980;28;20557;-70
2022/01/03 06:18:11;;;;;;;2.60;1.47;;;8.80;99.90;;;;;;4988093;28;20994;-69
2022/01/03 06:20:42;;;;;;;4.37;1.30;;;8.80;99.90;;;;;;4990378;28;20901;-69
2022/01/03 06:23:11;;;;;;;3.40;1.30;;;8.70;99.90;;;;;;4981036;28;20954;-69
2022/01/03 06:25:38;;;;;;;3.93;1.40;;;8.70;99.90;;;;;;4986046;28;20946;-69
2022/01/03 06:28:07;;;;;;;4.07;1.37;;;8.70;99.90;;;;;;4986131;28;20455;-69
2022/01/03 06:30:38;;;;;;;3.70;1.37;;;8.70;99.90;;;;;;4987431;28;20465;-70
2022/01/03 06:33:05;;;;;;;4.67;1.97;;;8.70;99.90;;;;;;4987861;28;20970;-70
2022/01/03 06:35:32;;;;;;;4.20;1.17;;;8.70;99.90;;;;;;4983318;28;20484;-70
2022/01/03 06:37:59;;;;;;;3.40;1.40;;;8.70;99.90;;;;;;4980481;28;20563;-70
2022/01/03 06:40:25;;;;;;;3.00;1.00;;;8.70;99.90;;;;;;4992129;28;20446;-71
2022/01/03 06:42:51;;;;;;;7.23;2.07;;;8.70;99.90;;;;;;4989445;28;20445;-70
2022/01/03 06:45:17;;;;;;;2.27;1.00;;;8.70;99.90;;;;;;4981255;28;20450;-69
2022/01/03 06:47:43;;;;;;;2.80;0.90;;;8.70;99.90;;;;;;4977597;28;20430;-70
2022/01/03 06:50:10;;;;;;;2.13;1.23;;;8.70;99.90;;;;;;4986622;28;20207;-70
2022/01/03 06:52:36;;;;;;;3.40;0.80;;;8.70;99.90;;;;;;4992822;28;20218;-70
2022/01/03 06:55:03;;;;;;;3.13;1.40;;;8.70;99.90;;;;;;4996332;28;20437;-70
2022/01/03 06:57:29;;;;;;;2.73;1.43;;;8.70;99.90;;;;;;4998975;28;20425;-70
2022/01/03 06:59:55;;;;;;;2.93;0.90;;;8.70;99.90;;;;;;5012379;22;20440;-70
2022/01/03 07:02:21;;;;;;;7.23;1.30;;;8.70;99.90;;;;;;4994666;28;20653;-70
2022/01/03 07:04:47;;;;;;;8.00;1.40;;;8.80;99.90;;;;;;4998746;28;20191;-70
2022/01/03 07:07:13;;;;;;;2.00;0.80;;;8.70;99.90;;;;;;4996986;28;20426;-70
2022/01/03 07:09:39;;;;;;;2.77;0.80;;;8.80;99.90;;;;;;4996293;28;20807;-70
2022/01/03 07:12:06;;;;;;;2.80;1.30;;;8.80;99.90;;;;;;4995438;28;20458;-70
2022/01/03 07:19:58;;;;;;;8.30;1.33;;;8.80;99.90;;;;;;4991883;28;20745;-70
2022/01/03 07:22:24;;;;;;;5.00;0.97;;;8.90;99.90;;;;;;4995253;28;20806;-70
2022/01/03 07:24:52;;;;;;;3.70;1.50;;;8.90;99.90;;;;;;4992714;28;20460;-70
2022/01/03 07:27:18;;;;;;;3.33;1.10;;;8.90;99.90;;;;;;4992915;28;20973;-70
2022/01/03 07:29:46;;;;;;;2.33;0.70;;;8.90;99.90;;;;;;4992117;28;20458;-70
2022/01/03 07:32:12;;;;;;;3.30;1.27;;;8.90;99.90;;;;;;4994301;28;20799;-70
2022/01/03 07:34:38;;;;;;;2.47;0.80;;;8.90;99.90;;;;;;4998748;28;20422;-71
2022/01/03 07:37:04;;;;;;;3.13;1.03;;;8.90;99.90;;;;;;4989686;28;20278;-71
2022/01/03 07:39:31;;;;;;;8.47;1.07;;;8.90;99.90;;;;;;4994352;28;20429;-69
2022/01/03 07:42:00;;;;;;;3.03;1.00;;;8.80;99.90;;;;;;4988153;28;20468;-70
2022/01/03 07:44:27;;;;;;;2.73;1.00;;;8.90;99.90;;;;;;4990415;28;20438;-70
2022/01/03 07:46:54;;;;;;;2.80;1.13;;;8.90;99.90;;;;;;4993015;28;20434;-70
2022/01/03 07:49:20;;;;;;;5.40;1.00;;;9.00;99.90;;;;;;4996389;28;20429;-70
2022/01/03 07:51:46;;;;;;;5.90;1.63;;;9.00;99.90;;;;;;4992999;28;20588;-68
2022/01/03 07:54:12;;;;;;;3.90;1.40;;;9.00;99.90;;;;;;4996868;28;20601;-70
2022/01/03 07:56:38;;;;;;;3.73;1.23;;;9.00;99.90;;;;;;4989043;28;20979;-70
2022/01/03 07:59:05;;;;;;;8.70;1.87;;;9.10;99.90;;;;;;4992674;28;20633;-70
2022/01/03 08:01:31;;;;;;;3.83;1.10;;;9.10;99.90;;;;;;4987426;28;20231;-69
2022/01/03 08:03:57;;;;;;;10.63;1.20;;;9.00;99.90;;;;;;4993275;28;20941;-70
2022/01/03 08:06:23;;;;;;;2.10;1.07;;;9.00;99.90;;;;;;4990775;28;20438;-70
2022/01/03 08:08:48;;;;;;;2.53;0.93;;;9.00;99.90;;;;;;4999815;28;20195;-70
2022/01/03 08:11:14;;;;;;;4.33;1.10;;;9.10;99.90;;;;;;4987923;28;20218;-69
2022/01/03 08:13:40;;;;;;;6.53;1.70;;;9.20;99.90;;;;;;4989482;28;20195;-70
2022/01/03 08:16:05;;;;;;;6.20;2.00;;;9.10;99.90;;;;;;4989580;28;20202;-70
2022/01/03 08:18:32;;;;;;;5.03;1.43;;;9.10;99.90;;;;;;4987159;28;20199;-71
2022/01/03 08:20:58;;;;;;;12.03;2.20;;;9.10;99.90;;;;;;4993518;28;20498;-70
2022/01/03 08:23:24;;;;;;;4.50;1.40;;;9.10;99.90;;;;;;4980164;28;20938;-69
2022/01/03 08:25:50;;;;;;;2.17;0.87;;;9.10;99.90;;;;;;4992546;28;20433;-70
2022/01/03 08:28:15;;;;;;;3.43;1.17;;;9.10;99.90;;;;;;4995941;28;20206;-70
2022/01/03 08:30:42;;;;;;;7.80;1.90;;;9.10;99.90;;;;;;4992917;28;20195;-71
2022/01/03 08:33:07;;;;;;;4.60;1.47;;;9.10;99.90;;;;;;4989707;28;20912;-69
2022/01/03 08:35:33;;;;;;;6.33;1.53;;;9.10;99.90;;;;;;4994741;28;20495;-70
2022/01/03 08:37:59;;;;;;;3.10;1.10;;;9.10;99.90;;;;;;4998517;28;20180;-69
2022/01/03 08:40:25;;;;;;;2.93;0.63;;;9.10;99.90;;;;;;4999008;28;20191;-69
2022/01/03 08:42:51;;;;;;;3.43;1.00;;;9.10;99.90;;;;;;4995794;28;20431;-70
2022/01/03 08:45:18;;;;;;;3.13;1.03;;;9.10;99.90;;;;;;4999597;28;20422;-70
2022/01/03 08:47:44;;;;;;;3.27;1.60;;;9.10;99.90;;;;;;4995873;28;20659;-70
2022/01/03 08:50:10;;;;;;;6.10;1.87;;;9.10;99.90;;;;;;4994358;28;20423;-70
2022/01/03 08:52:37;;;;;;;2.73;0.93;;;9.20;99.90;;;;;;4988986;28;20216;-70
2022/01/03 08:55:03;;;;;;;11.00;1.00;;;9.20;99.90;;;;;;4989353;28;20419;-70
2022/01/03 08:57:29;;;;;;;2.50;1.10;;;9.20;99.90;;;;;;4987492;28;20450;-70
2022/01/03 08:59:55;;;;;;;7.67;2.03;;;9.30;99.90;;;;;;4987637;28;20482;-70
2022/01/03 09:02:20;;;;;;;3.70;1.10;;;9.30;99.90;;;;;;4986205;28;20700;-69
2022/01/03 09:04:47;;;;;;;12.63;1.30;;;9.30;99.90;;;;;;4990570;28;20191;-70
2022/01/03 09:07:13;;;;;;;2.70;1.30;;;9.30;99.90;;;;;;4992124;28;20647;-70
2022/01/03 09:09:39;;;;;;;4.30;1.07;;;9.30;99.90;;;;;;4992082;28;20434;-70
2022/01/03 09:12:07;;;;;;;7.10;1.57;;;9.40;99.90;;;;;;4995570;28;20527;-70
2022/01/03 09:14:33;;;;;;;2.63;1.13;;;9.40;99.90;;;;;;4997361;28;20434;-69
2022/01/03 09:16:59;;;;;;;3.93;1.23;;;9.40;99.90;;;;;;4987473;28;20423;-70
2022/01/03 09:19:25;;;;;;;6.60;1.47;;;9.40;99.90;;;;;;4989672;28;20442;-71
2022/01/03 09:21:58;;;;;;;7.23;0.90;;;9.40;99.90;;;;;;4989330;28;20196;-70
2022/01/03 09:24:30;;;;;;;2.50;0.93;;;9.40;99.90;;;;;;4990044;28;20493;-71
2022/01/03 09:29:41;;;;;;;12.97;2.10;;;9.40;99.90;;;;;;4984888;28;20807;-69
2022/01/03 09:32:07;;;;;;;5.47;1.37;;;9.50;99.90;;;;;;4991393;28;20469;-70
2022/01/03 09:34:33;;;;;;;3.57;1.33;;;9.50;99.90;;;;;;4990667;28;20430;-70
2022/01/03 09:37:00;;;;;;;4.13;1.13;;;9.50;99.90;;;;;;4992853;28;20812;-70
2022/01/03 09:39:26;;;;;;;3.63;0.93;;;9.50;99.90;;;;;;4991012;28;20180;-70
2022/01/03 09:42:04;;;;;;;7.83;0.87;;;9.50;99.90;;;;;;4994217;28;20429;-70
2022/01/03 09:44:31;;;;;;;9.03;1.83;;;9.50;99.90;;;;;;4986419;28;20461;-70
2022/01/03 09:47:03;;;;;;;3.20;0.93;;;9.60;99.90;;;;;;4994610;28;20462;-70
2022/01/03 09:49:34;;;;;;;7.73;1.07;;;9.60;99.90;;;;;;4993055;28;20942;-70
2022/01/03 09:52:03;;;;;;;3.57;1.10;;;9.60;99.90;;;;;;4995542;28;20469;-70
2022/01/03 09:54:29;;;;;;;2.33;0.87;;;9.60;99.90;;;;;;4992319;28;20541;-69
2022/01/03 09:56:58;;;;;;;5.00;1.87;;;9.60;99.90;;;;;;4987302;28;20525;-70
2022/01/03 09:59:25;;;;;;;6.80;1.80;;;9.70;99.90;;;;;;4993042;28;20573;-70
2022/01/03 10:01:52;;;;;;;2.83;0.70;;;9.80;99.90;;;;;;4997415;28;20441;-70
2022/01/03 10:04:19;;;;;;;2.80;0.93;;;9.70;99.90;;;;;;4995026;28;20425;-70
2022/01/03 10:06:45;;;;;;;12.30;1.20;;;9.70;99.90;;;;;;4998713;28;20430;-70
2022/01/03 10:09:11;;;;;;;2.23;0.80;;;9.70;99.90;;;;;;4994865;28;20453;-71
2022/01/03 10:11:37;;;;;;;1.53;0.80;;;9.80;99.90;;;;;;4990665;28;20474;-69
2022/01/03 10:14:03;;;;;;;9.03;1.63;;;9.80;99.90;;;;;;4997683;28;20743;-71
2022/01/03 10:16:29;;;;;;;4.50;0.80;;;9.80;99.90;;;;;;4988284;28;20449;-70
2022/01/03 10:18:55;;;;;;;5.33;1.67;;;9.80;99.90;;;;;;4991012;28;20621;-70
2022/01/03 10:21:42;;;;;;;3.53;1.20;;;9.90;99.90;;;;;;4989190;28;20430;-70
2022/01/03 10:24:10;;;;;;;2.60;1.23;;;9.90;99.90;;;;;;4991436;28;20668;-69
2022/01/03 10:26:37;;;;;;;7.33;1.43;;;9.80;99.90;;;;;;4989211;28;20462;-69
2022/01/03 10:29:19;;;;;;;2.67;1.07;;;9.80;99.90;;;;;;4992388;28;20422;-70
2022/01/03 10:31:48;;;;;;;2.37;0.97;;;9.80;99.90;;;;;;4990216;28;20577;-70
2022/01/03 10:34:16;;;;;;;5.00;1.20;;;9.80;99.90;;;;;;4992338;28;20415;-70
2022/01/03 10:36:44;;;;;;;4.53;1.20;;;9.80;99.90;;;;;;4994742;28;20922;-71
2022/01/03 10:39:17;;;;;;;1.70;0.70;;;9.90;99.90;;;;;;4997105;28;20431;-70
2022/01/03 10:41:45;;;;;;;1.77;0.70;;;9.90;99.90;;;;;;4992994;28;20439;-71
2022/01/03 10:44:28;;;;;;;3.30;0.80;;;9.80;99.90;;;;;;4992207;28;20477;-70
2022/01/03 10:46:53;;;;;;;1.77;0.83;;;9.80;99.90;;;;;;4996231;28;20449;-70
2022/01/03 10:49:20;;;;;;;6.30;1.20;;;9.80;99.90;;;;;;4992900;28;20972;-71
2022/01/03 10:51:46;;;;;;;4.03;0.83;;;9.80;99.90;;;;;;4993226;28;20696;-70
2022/01/03 10:54:16;;;;;;;8.60;1.57;;;9.80;99.90;;;;;;4987955;28;20454;-70
2022/01/03 10:56:50;;;;;;;9.03;1.50;;;9.80;99.90;;;;;;4986758;28;20501;-70
2022/01/03 10:59:31;;;;;;;2.23;1.00;;;9.90;99.90;;;;;;4988620;28;20513;-70
2022/01/03 11:02:01;;;;;;;2.67;0.83;;;10.00;99.90;;;;;;4982850;28;20937;-70
2022/01/03 11:13:06;;;;;;;6.00;1.27;;;10.20;99.90;;;;;;4992900;28;20429;-70
2022/01/03 11:15:32;;;;;;;2.63;0.90;;;10.20;99.90;;;;;;4993025;28;20445;-70
2022/01/03 11:18:10;;;;;;;2.50;0.80;;;10.10;99.90;;;;;;4990066;28;20437;-70
2022/01/03 11:20:36;;;;;;;5.70;1.43;;;10.20;99.90;;;;;;4991123;28;20499;-70
2022/01/03 11:23:02;;;;;;;7.00;1.27;;;10.20;99.90;;;;;;4989743;28;20783;-70
2022/01/03 11:25:33;;;;;;;2.80;1.00;;;10.20;99.90;;;;;;4990743;28;20192;-70
2022/01/03 11:28:03;;;;;;;3.00;0.90;;;10.20;99.90;;;;;;4981340;28;20308;-70
2022/01/03 11:30:29;;;;;;;3.90;1.43;;;10.20;99.90;;;;;;4994094;28;20422;-70
2022/01/03 11:32:56;;;;;;;3.77;1.03;;;10.10;99.90;;;;;;4991008;28;20462;-70
2022/01/03 11:35:22;;;;;;;8.93;1.43;;;10.20;99.90;;;;;;4994674;28;20414;-70
2022/01/03 11:37:49;;;;;;;2.07;0.97;;;10.20;99.90;;;;;;4992523;28;20426;-71
2022/01/03 11:40:17;;;;;;;9.00;1.20;;;10.20;99.90;;;;;;4997375;28;20413;-71
2022/01/03 11:42:44;;;;;;;1.73;0.70;;;10.20;99.90;;;;;;4997204;28;21235;-70
2022/01/03 11:45:10;;;;;;;3.73;1.20;;;10.20;99.90;;;;;;4999663;28;20417;-70
2022/01/03 11:47:37;;;;;;;2.57;1.03;;;10.20;99.90;;;;;;4992564;28;20445;-71
2022/01/03 11:50:05;;;;;;;4.37;1.23;;;10.20;99.90;;;;;;4990273;28;20820;-70
2022/01/03 11:52:31;;;;;;;1.50;0.80;;;10.20;99.90;;;;;;4989990;28;20510;-70
2022/01/03 11:54:57;;;;;;;2.63;0.90;;;10.20;99.90;;;;;;4991685;28;20466;-70
2022/01/03 12:03:37;;;;;;;1.60;0.80;;;10.30;99.90;;;;;;4969057;28;20452;-71
2022/01/03 12:06:05;;;;;;;3.90;1.43;;;10.30;99.90;;;;;;4971196;28;20470;-72
2022/01/03 12:08:33;;;;;;;4.40;1.33;;;10.30;99.90;;;;;;4979874;28;20770;-71
2022/01/03 12:11:01;;;;;;;4.37;1.10;;;10.30;99.90;;;;;;4992634;28;20467;-70
2022/01/03 12:13:48;;;;;;;3.53;1.30;;;10.20;99.90;;;;;;4994183;28;20415;-70
2022/01/03 12:16:15;;;;;;;6.83;1.43;;;10.30;99.90;;;;;;4991834;28;20946;-70
2022/01/03 12:18:57;;;;;;;3.57;1.30;;;10.30;99.90;;;;;;4994034;28;20445;-70
2022/01/03 12:21:52;;;;;;;8.00;1.07;;;10.30;99.90;;;;;;4991829;28;20462;-70
2022/01/03 12:24:27;;;;;;;3.80;0.80;;;10.30;99.90;;;;;;4997624;28;20417;-71
2022/01/03 12:27:13;;;;;;;3.87;1.13;;;10.30;99.80;;;;;;4988418;28;20426;-70
2022/01/03 12:29:56;;;;;;;1.70;0.80;;;10.40;99.60;;;;;;4994937;28;20423;-70
2022/01/03 12:32:23;;;;;;;1.43;0.60;;;10.50;99.10;;;;;;4990325;28;21057;-70
2022/01/03 12:35:10;;;;;;;3.20;0.90;;;10.50;99.30;;;;;;4994433;28;20457;-70
2022/01/03 12:37:38;;;;;;;4.37;1.10;;;10.50;99.20;;;;;;4994817;28;20432;-71
2022/01/03 12:40:04;;;;;;;3.83;1.30;;;10.50;99.20;;;;;;4996956;28;20426;-71
2022/01/03 12:45:34;;;;;;;5.83;1.70;;;10.40;99.00;;;;;;4999185;28;20191;-71
2022/01/03 12:48:12;;;;;;;2.20;1.07;;;10.40;99.20;;;;;;4988888;28;20443;-71
2022/01/03 12:50:52;;;;;;;3.63;1.20;;;10.40;99.00;;;;;;4989496;28;21006;-71
2022/01/03 12:53:27;;;;;;;3.20;1.03;;;10.40;98.90;;;;;;4990317;28;20439;-71
2022/01/03 12:56:07;;;;;;;5.43;1.30;;;10.30;98.70;;;;;;4989525;28;20965;-71
2022/01/03 12:58:32;;;;;;;9.90;2.30;;;10.40;98.90;;;;;;4989595;28;20436;-71
2022/01/03 13:01:12;;;;;;;12.93;3.70;;;10.30;98.90;;;;;;4991433;28;20442;-71
2022/01/03 13:03:52;;;;;;;5.37;2.10;;;10.30;98.80;;;;;;4985766;28;20228;-71
2022/01/03 13:06:33;;;;;;;3.53;1.50;;;10.30;98.80;;;;;;4999361;28;20502;-71
2022/01/03 13:09:01;;;;;;;4.67;1.70;;;10.30;98.90;;;;;;4991471;28;20419;-71
2022/01/03 13:11:32;;;;;;;4.70;1.40;;;10.40;98.70;;;;;;4985502;28;20982;-71
2022/01/03 13:14:03;;;;;;;4.30;1.50;;;10.40;98.90;;;;;;4992387;28;20903;-71
2022/01/03 13:16:39;;;;;;;1.60;1.00;;;10.40;98.90;;;;;;4993408;28;20783;-71
2022/01/03 13:19:20;;;;;;;6.83;1.77;;;10.50;98.60;;;;;;4993025;28;20835;-71
2022/01/03 13:22:00;;;;;;;18.90;1.63;;;10.40;98.60;;;;;;4987644;28;20430;-71
2022/01/03 13:24:29;;;;;;;6.33;1.20;;;10.50;98.50;;;;;;4993948;28;20747;-71
2022/01/03 13:27:20;;;;;;;1.30;0.60;;;10.40;98.70;;;;;;4993426;28;20583;-71
2022/01/03 13:29:51;;;;;;;5.20;1.23;;;10.30;98.50;;;;;;4995237;28;20546;-71
2022/01/03 13:32:24;;;;;;;1.40;0.60;;;10.30;98.50;;;;;;4998608;28;20466;-70